Time;durP1;ratioP1;P1;durP2;ratioP2;P2;SDS_P1;SDS_P2;PMS_P1;PMS_P2;Temp;Humidity;BMP_temperature;BMP_pressure;BME280_temperature;BME280_humidity;BME280_pressure;Samples;Min_cycle;Max_cycle;Signal;HPM_P1;HPM_P2
2023/10/26 00:16:18;;;;;;;;;;;11.80;90.60;;;;;;5100586;28;19923;-67
2023/10/26 00:18:51;;;;;;;;;;;11.80;90.60;;;;;;5099664;28;19963;-67
2023/10/26 00:21:24;;;;;;;;;;;11.80;90.60;;;;;;5096151;28;19935;-67
2023/10/26 00:23:57;;;;;;;;;;;11.80;90.60;;;;;;5100079;28;20439;-67
2023/10/26 00:26:30;;;;;;;;;;;11.80;90.60;;;;;;5096663;28;20007;-67
2023/10/26 00:29:03;;;;;;;;;;;11.80;90.60;;;;;;5093799;28;19927;-66
2023/10/26 00:31:37;;;;;;;;;;;11.80;90.50;;;;;;5095421;28;20018;-66
2023/10/26 00:34:11;;;;;;;;;;;11.70;90.50;;;;;;5094504;28;19928;-66
2023/10/26 00:36:45;;;;;;;;;;;11.70;90.50;;;;;;5094350;27;19935;-66
2023/10/26 00:39:18;;;;;;;;;;;11.70;90.50;;;;;;5097777;28;19928;-67
2023/10/26 00:41:52;;;;;;;;;;;11.70;90.50;;;;;;5092324;28;19924;-65
2023/10/26 00:44:26;;;;;;;;;;;11.70;90.50;;;;;;5093861;28;19928;-66
2023/10/26 00:47:01;;;;;;;;;;;11.70;90.50;;;;;;5101625;28;20018;-67
2023/10/26 00:49:34;;;;;;;;;;;11.70;90.60;;;;;;5077722;28;19923;-67
2023/10/26 00:52:07;;;;;;;;;;;11.70;90.50;;;;;;5095851;28;20003;-67
2023/10/26 00:54:41;;;;;;;;;;;11.70;90.50;;;;;;5097621;28;19935;-66
2023/10/26 00:57:16;;;;;;;;;;;11.70;90.50;;;;;;5096939;28;19928;-66
2023/10/26 00:59:49;;;;;;;;;;;11.70;90.50;;;;;;5098198;28;19924;-66
2023/10/26 01:02:23;;;;;;;;;;;11.70;90.40;;;;;;5098992;28;19932;-66
2023/10/26 01:04:51;;;;;;;;;;;11.70;90.40;;;;;;5096033;27;19927;-66
2023/10/26 01:07:26;;;;;;;;;;;11.70;90.40;;;;;;5093255;28;19959;-67
2023/10/26 01:09:59;;;;;;;;;;;11.60;90.40;;;;;;5093272;28;20199;-67
2023/10/26 01:12:32;;;;;;;;;;;11.60;90.30;;;;;;5107701;27;19928;-66
2023/10/26 01:15:06;;;;;;;;;;;11.60;90.30;;;;;;5094865;28;19935;-65
2023/10/26 01:17:41;;;;;;;;;;;11.60;90.20;;;;;;5081176;28;19928;-67
2023/10/26 01:20:17;;;;;;;;;;;11.60;90.30;;;;;;5096037;28;19928;-66
2023/10/26 01:22:52;;;;;;;;;;;11.60;90.10;;;;;;5096384;28;19943;-66
2023/10/26 01:25:26;;;;;;;;;;;11.60;90.00;;;;;;5084537;28;19972;-66
2023/10/26 01:27:59;;;;;;;;;;;11.60;90.00;;;;;;5097785;28;19928;-66
2023/10/26 01:30:32;;;;;;;;;;;11.60;89.90;;;;;;5110499;27;19924;-67
2023/10/26 01:33:06;;;;;;;;;;;11.60;89.90;;;;;;5098213;28;19980;-66
2023/10/26 01:35:41;;;;;;;;;;;11.60;89.90;;;;;;5098937;28;20131;-66
2023/10/26 01:38:09;;;;;;;;;;;11.50;89.80;;;;;;5096790;28;20436;-66
2023/10/26 01:40:42;;;;;;;;;;;11.50;89.80;;;;;;5098694;28;20014;-67
2023/10/26 01:43:09;;;;;;;;;;;11.50;89.60;;;;;;5096245;28;19927;-67
2023/10/26 01:45:42;;;;;;;;;;;11.50;89.50;;;;;;5092710;28;19936;-65
2023/10/26 01:48:15;;;;;;;;;;;11.50;89.60;;;;;;5090601;28;20781;-66
2023/10/26 01:50:48;;;;;;;;;;;11.50;89.60;;;;;;5089951;28;19927;-65
2023/10/26 01:53:23;;;;;;;;;;;11.50;89.50;;;;;;5098339;28;19928;-66
2023/10/26 01:55:57;;;;;;;;;;;11.50;89.50;;;;;;5090996;28;19973;-66
2023/10/26 01:58:31;;;;;;;;;;;11.40;89.30;;;;;;5078389;28;19924;-67
2023/10/26 02:01:05;;;;;;;;;;;11.50;89.30;;;;;;5096282;28;19924;-66
2023/10/26 02:03:38;;;;;;;;;;;11.50;89.10;;;;;;5099122;27;19975;-65
2023/10/26 02:06:11;;;;;;;;;;;11.40;89.20;;;;;;5094158;28;19927;-67
2023/10/26 02:08:45;;;;;;;;;;;11.40;89.10;;;;;;5096831;28;19938;-66
2023/10/26 02:11:19;;;;;;;;;;;11.50;89.10;;;;;;5096650;28;20390;-67
2023/10/26 02:13:52;;;;;;;;;;;11.40;89.10;;;;;;5097637;28;19930;-66
2023/10/26 02:16:25;;;;;;;;;;;11.40;89.10;;;;;;5104057;27;19955;-67
2023/10/26 02:18:58;;;;;;;;;;;11.40;89.10;;;;;;5095182;28;19924;-67
2023/10/26 02:21:31;;;;;;;;;;;11.40;88.90;;;;;;5114821;27;19924;-67
2023/10/26 02:24:05;;;;;;;;;;;11.40;88.90;;;;;;5103449;28;19927;-66
2023/10/26 02:26:39;;;;;;;;;;;11.40;88.90;;;;;;5100566;28;19934;-65
2023/10/26 02:29:13;;;;;;;;;;;11.30;88.80;;;;;;5098626;28;19924;-67
2023/10/26 02:31:47;;;;;;;;;;;11.40;88.80;;;;;;5098897;28;19932;-67
2023/10/26 02:34:21;;;;;;;;;;;11.40;88.90;;;;;;5102336;28;20387;-67
2023/10/26 02:36:54;;;;;;;;;;;11.40;88.90;;;;;;5099815;28;20414;-66
2023/10/26 02:39:22;;;;;;;;;;;11.40;88.90;;;;;;5104362;28;19932;-67
2023/10/26 02:41:55;;;;;;;;;;;11.40;88.80;;;;;;5101617;27;19950;-65
2023/10/26 02:44:28;;;;;;;;;;;11.40;88.80;;;;;;5101429;28;19935;-66
2023/10/26 02:47:01;;;;;;;;;;;11.40;88.90;;;;;;5101751;28;19932;-65
2023/10/26 02:49:34;;;;;;;;;;;11.30;88.80;;;;;;5094554;28;19927;-65
2023/10/26 02:52:00;;;;;;;;;;;11.30;88.90;;;;;;5100730;28;21169;-67
2023/10/26 02:54:36;;;;;;;;;;;11.30;88.90;;;;;;5102396;27;19947;-66
2023/10/26 02:57:10;;;;;;;;;;;11.30;88.80;;;;;;5099506;27;19932;-64
2023/10/26 02:59:43;;;;;;;;;;;11.30;88.80;;;;;;5102710;28;19928;-64
2023/10/26 03:02:16;;;;;;;;;;;11.30;88.90;;;;;;5101611;28;19927;-63
2023/10/26 03:04:49;;;;;;;;;;;11.40;88.90;;;;;;5100049;28;19928;-64
2023/10/26 03:07:29;;;;;;;;;;;11.30;88.80;;;;;;5100243;28;19924;-63
2023/10/26 03:10:05;;;;;;;;;;;11.40;88.90;;;;;;5114635;27;19924;-64
2023/10/26 03:12:40;;;;;;;;;;;11.30;89.00;;;;;;5101017;28;19942;-63
2023/10/26 03:15:14;;;;;;;;;;;11.30;89.00;;;;;;5099987;28;19928;-64
2023/10/26 03:17:47;;;;;;;;;;;11.30;88.90;;;;;;5099708;28;19932;-63
2023/10/26 03:20:20;;;;;;;;;;;11.30;88.90;;;;;;5091529;28;19975;-65
2023/10/26 03:22:53;;;;;;;;;;;11.30;89.00;;;;;;5100062;28;19933;-65
2023/10/26 03:25:27;;;;;;;;;;;11.30;89.00;;;;;;5112162;27;19932;-64
2023/10/26 03:28:01;;;;;;;;;;;11.30;88.80;;;;;;5103159;28;19927;-65
2023/10/26 03:30:36;;;;;;;;;;;11.30;88.80;;;;;;5096609;28;19924;-63
2023/10/26 03:33:09;;;;;;;;;;;11.30;88.70;;;;;;5100611;28;20379;-63
2023/10/26 03:35:42;;;;;;;;;;;11.30;88.80;;;;;;5103193;28;19964;-64
2023/10/26 03:38:15;;;;;;;;;;;11.20;88.80;;;;;;5099294;28;19924;-63
2023/10/26 03:40:51;;;;;;;;;;;11.30;88.80;;;;;;5098289;28;20023;-66
2023/10/26 03:43:24;;;;;;;;;;;11.20;88.80;;;;;;5087795;28;20750;-63
2023/10/26 03:45:57;;;;;;;;;;;11.20;88.80;;;;;;5113676;27;20278;-63
2023/10/26 03:48:30;;;;;;;;;;;11.20;88.90;;;;;;5093482;28;19927;-63
2023/10/26 03:51:03;;;;;;;;;;;11.20;88.80;;;;;;5095109;28;19927;-63
2023/10/26 03:53:36;;;;;;;;;;;11.20;88.70;;;;;;5109413;27;19924;-63
2023/10/26 03:56:11;;;;;;;;;;;11.20;88.80;;;;;;5102689;27;19939;-65
2023/10/26 03:58:45;;;;;;;;;;;11.20;88.80;;;;;;5096560;28;19936;-63
2023/10/26 04:01:19;;;;;;;;;;;11.20;88.70;;;;;;5099596;28;19928;-63
2023/10/26 04:03:52;;;;;;;;;;;11.20;88.80;;;;;;5092540;28;19928;-63
2023/10/26 04:06:25;;;;;;;;;;;11.20;88.90;;;;;;5101406;28;19973;-73
2023/10/26 04:08:58;;;;;;;;;;;11.20;88.80;;;;;;5098606;28;19935;-72
2023/10/26 04:11:38;;;;;;;;;;;11.10;88.70;;;;;;5101438;28;19935;-71
2023/10/26 04:14:12;;;;;;;;;;;11.20;88.80;;;;;;5101379;28;19947;-72
2023/10/26 04:16:47;;;;;;;;;;;11.20;88.60;;;;;;5098708;28;19924;-72
2023/10/26 04:19:21;;;;;;;;;;;11.20;88.70;;;;;;5101873;27;19924;-72
2023/10/26 04:21:54;;;;;;;;;;;11.10;88.70;;;;;;5098941;28;19930;-73
2023/10/26 04:24:27;;;;;;;;;;;11.20;88.80;;;;;;5096863;28;19924;-71
2023/10/26 04:27:01;;;;;;;;;;;11.20;88.70;;;;;;5101796;28;19932;-72
2023/10/26 04:29:35;;;;;;;;;;;11.20;88.60;;;;;;5100015;28;19930;-72
2023/10/26 04:32:08;;;;;;;;;;;11.20;88.70;;;;;;5098159;28;19970;-73
2023/10/26 04:34:44;;;;;;;;;;;11.20;88.80;;;;;;5099094;28;19923;-72
2023/10/26 04:37:17;;;;;;;;;;;11.20;88.70;;;;;;5100449;28;19940;-72
2023/10/26 04:39:50;;;;;;;;;;;11.20;88.60;;;;;;5099053;28;19931;-73
2023/10/26 04:42:24;;;;;;;;;;;11.20;88.70;;;;;;5099744;28;20245;-72
2023/10/26 04:44:58;;;;;;;;;;;11.20;88.60;;;;;;5097756;28;20466;-72
2023/10/26 04:47:31;;;;;;;;;;;11.20;88.60;;;;;;5092111;27;19928;-71
2023/10/26 04:50:04;;;;;;;;;;;11.20;88.60;;;;;;5095654;28;20448;-72
2023/10/26 04:52:38;;;;;;;;;;;11.10;88.50;;;;;;5097634;28;19928;-72
2023/10/26 04:55:11;;;;;;;;;;;11.10;88.50;;;;;;5100253;28;19928;-72
2023/10/26 04:57:45;;;;;;;;;;;11.10;88.50;;;;;;5099714;28;19934;-72
2023/10/26 05:00:18;;;;;;;;;;;11.10;88.60;;;;;;5097473;28;19931;-72
2023/10/26 05:02:51;;;;;;;;;;;11.20;88.40;;;;;;5096974;28;19928;-72
2023/10/26 05:05:24;;;;;;;;;;;11.10;88.40;;;;;;5097419;28;19928;-72
2023/10/26 05:07:57;;;;;;;;;;;11.10;88.40;;;;;;5089793;28;19939;-73
2023/10/26 05:10:30;;;;;;;;;;;11.10;88.40;;;;;;5098165;28;19934;-70
2023/10/26 05:13:04;;;;;;;;;;;11.10;88.50;;;;;;5100502;28;20007;-72
2023/10/26 05:15:38;;;;;;;;;;;11.10;88.40;;;;;;5097044;28;19928;-61
2023/10/26 05:18:05;;;;;;;;;;;11.10;88.50;;;;;;5099998;28;19934;-61
2023/10/26 05:20:38;;;;;;;;;;;11.10;88.40;;;;;;5095348;28;19934;-61
2023/10/26 05:23:18;;;;;;;;;;;11.10;88.50;;;;;;5098629;28;19971;-60
2023/10/26 05:25:52;;;;;;;;;;;11.10;88.60;;;;;;5092143;28;20379;-61
2023/10/26 05:28:26;;;;;;;;;;;11.10;88.60;;;;;;5100537;28;19924;-59
2023/10/26 05:31:00;;;;;;;;;;;11.10;88.50;;;;;;5093008;28;19928;-62
2023/10/26 05:33:33;;;;;;;;;;;11.10;88.50;;;;;;5092585;28;19924;-61
2023/10/26 05:36:06;;;;;;;;;;;11.10;88.40;;;;;;5091826;28;19932;-61
2023/10/26 05:38:40;;;;;;;;;;;11.10;88.40;;;;;;5095796;28;19932;-60
2023/10/26 05:41:13;;;;;;;;;;;11.00;88.40;;;;;;5099593;28;20050;-61
2023/10/26 05:43:47;;;;;;;;;;;11.00;88.40;;;;;;5091235;28;19932;-61
2023/10/26 05:46:21;;;;;;;;;;;11.00;88.40;;;;;;5093050;28;19995;-60
2023/10/26 05:48:54;;;;;;;;;;;11.00;88.30;;;;;;5092211;27;19927;-62
2023/10/26 05:51:29;;;;;;;;;;;11.00;88.30;;;;;;5094820;28;19935;-61
2023/10/26 05:53:55;;;;;;;;;;;11.00;88.20;;;;;;5090097;28;19977;-60
2023/10/26 05:56:29;;;;;;;;;;;10.90;88.30;;;;;;5098976;28;20047;-62
2023/10/26 05:59:04;;;;;;;;;;;10.90;88.40;;;;;;5098623;28;20026;-61
2023/10/26 06:01:38;;;;;;;;;;;10.80;88.40;;;;;;5096980;28;20009;-61
2023/10/26 06:04:11;;;;;;;;;;;10.90;88.40;;;;;;5091484;28;20383;-61
2023/10/26 06:06:44;;;;;;;;;;;10.90;88.40;;;;;;5094183;28;20439;-62
2023/10/26 06:09:17;;;;;;;;;;;10.90;88.30;;;;;;5094004;28;19980;-61
2023/10/26 06:11:50;;;;;;;;;;;10.90;88.20;;;;;;5093365;28;19932;-60
2023/10/26 06:14:24;;;;;;;;;;;10.80;88.20;;;;;;5096635;28;19935;-61
2023/10/26 06:16:58;;;;;;;;;;;10.80;88.30;;;;;;5096279;28;19990;-61
2023/10/26 06:19:25;;;;;;;;;;;10.80;88.20;;;;;;5096205;28;19932;-60
2023/10/26 06:21:58;;;;;;;;;;;10.80;88.10;;;;;;5095683;28;20010;-60
2023/10/26 06:24:31;;;;;;;;;;;10.80;88.20;;;;;;5096111;28;19934;-61
2023/10/26 06:27:04;;;;;;;;;;;10.80;88.30;;;;;;5099335;28;20298;-66
2023/10/26 06:29:38;;;;;;;;;;;10.80;88.20;;;;;;5091273;28;20007;-66
2023/10/26 06:32:12;;;;;;;;;;;10.80;88.30;;;;;;5097102;28;20027;-66
2023/10/26 06:34:45;;;;;;;;;;;10.80;88.30;;;;;;5095069;28;20457;-65
2023/10/26 06:37:18;;;;;;;;;;;10.80;88.30;;;;;;5096047;28;19958;-65
2023/10/26 06:39:51;;;;;;;;;;;10.80;88.30;;;;;;5098218;28;19932;-65
2023/10/26 06:42:24;;;;;;;;;;;10.80;88.20;;;;;;5100140;28;19935;-65
2023/10/26 06:45:00;;;;;;;;;;;10.70;88.30;;;;;;5093330;28;19928;-65
2023/10/26 06:47:33;;;;;;;;;;;10.80;88.30;;;;;;5097274;28;20294;-67
2023/10/26 06:50:07;;;;;;;;;;;10.80;88.30;;;;;;5094426;28;19928;-65
2023/10/26 06:52:40;;;;;;;;;;;10.80;88.40;;;;;;5096423;28;20244;-65
2023/10/26 06:55:16;;;;;;;;;;;10.80;88.30;;;;;;5097118;28;19967;-65
2023/10/26 06:57:49;;;;;;;;;;;10.90;88.40;;;;;;5097225;28;19927;-65
2023/10/26 07:00:17;;;;;;;;;;;10.90;88.40;;;;;;5099236;28;19958;-67
2023/10/26 07:02:51;;;;;;;;;;;10.90;88.40;;;;;;5101729;28;20288;-65
2023/10/26 07:05:24;;;;;;;;;;;10.90;88.30;;;;;;5095262;28;19931;-69
2023/10/26 07:07:59;;;;;;;;;;;10.90;88.30;;;;;;5103550;28;20293;-70
2023/10/26 07:10:32;;;;;;;;;;;10.90;88.30;;;;;;5100104;28;19978;-69
2023/10/26 07:13:07;;;;;;;;;;;10.90;88.20;;;;;;5102917;28;19935;-69
2023/10/26 07:15:42;;;;;;;;;;;10.90;88.20;;;;;;5112420;27;19935;-69
2023/10/26 07:18:18;;;;;;;;;;;10.90;88.20;;;;;;5103568;28;19969;-70
2023/10/26 07:20:51;;;;;;;;;;;10.90;88.30;;;;;;5096016;28;19935;-70
2023/10/26 07:23:25;;;;;;;;;;;10.90;88.30;;;;;;5101162;28;20031;-70
2023/10/26 07:25:59;;;;;;;;;;;11.00;88.30;;;;;;5099401;28;19931;-68
2023/10/26 07:28:32;;;;;;;;;;;11.00;88.10;;;;;;5102032;28;19977;-70
2023/10/26 07:31:06;;;;;;;;;;;11.00;88.20;;;;;;5099062;28;20018;-69
2023/10/26 07:33:40;;;;;;;;;;;11.00;88.20;;;;;;5102319;27;19947;-69
2023/10/26 07:36:13;;;;;;;;;;;11.00;88.10;;;;;;5096280;27;20038;-61
2023/10/26 07:38:46;;;;;;;;;;;11.00;88.00;;;;;;5099624;28;19932;-61
2023/10/26 07:41:19;;;;;;;;;;;11.00;88.20;;;;;;5101809;28;19930;-61
2023/10/26 07:43:52;;;;;;;;;;;11.00;88.10;;;;;;5100519;28;19935;-61
2023/10/26 07:46:26;;;;;;;;;;;11.10;88.10;;;;;;5098504;28;19968;-61
2023/10/26 07:49:00;;;;;;;;;;;11.10;88.10;;;;;;5096896;28;19927;-60
2023/10/26 07:51:33;;;;;;;;;;;11.10;88.00;;;;;;5100578;28;19928;-62
2023/10/26 07:54:06;;;;;;;;;;;11.10;87.90;;;;;;5100468;28;19927;-60
2023/10/26 07:56:39;;;;;;;;;;;11.20;88.00;;;;;;5101543;27;20018;-60
2023/10/26 07:59:12;;;;;;;;;;;11.10;87.90;;;;;;5096754;28;19932;-60
2023/10/26 08:01:47;;;;;;;;;;;11.10;87.90;;;;;;5100875;28;19932;-61
2023/10/26 08:04:21;;;;;;;;;;;11.20;87.90;;;;;;5094502;27;20013;-61
2023/10/26 08:06:54;;;;;;;;;;;11.20;87.90;;;;;;5098490;28;20289;-62
2023/10/26 08:09:29;;;;;;;;;;;11.20;87.90;;;;;;5100431;28;19928;-63
2023/10/26 08:12:03;;;;;;;;;;;11.10;87.90;;;;;;5101425;28;20022;-62
2023/10/26 08:14:36;;;;;;;;;;;11.10;88.00;;;;;;5096057;28;19932;-62
2023/10/26 08:17:11;;;;;;;;;;;11.20;88.00;;;;;;5100635;28;19927;-61
2023/10/26 08:19:50;;;;;;;;;;;11.20;87.90;;;;;;5095571;28;19939;-61
2023/10/26 08:22:24;;;;;;;;;;;11.20;87.90;;;;;;5098153;28;20001;-61
2023/10/26 08:24:51;;;;;;;;;;;11.20;87.90;;;;;;5098904;28;19967;-60
2023/10/26 08:27:24;;;;;;;;;;;11.30;88.00;;;;;;5100663;28;20010;-61
2023/10/26 08:29:57;;;;;;;;;;;11.30;87.90;;;;;;5097374;28;19928;-60
2023/10/26 08:32:31;;;;;;;;;;;11.30;87.80;;;;;;5100304;28;19927;-61
2023/10/26 08:35:20;;;;;;;;;;;11.40;87.50;;;;;;5098763;28;21219;-61
2023/10/26 08:37:59;;;;;;;;;;;11.50;87.50;;;;;;5114626;27;19923;-60
2023/10/26 08:40:33;;;;;;;;;;;11.50;87.50;;;;;;5101690;28;19928;-60
2023/10/26 08:43:05;;;;;;;;;;;11.60;87.40;;;;;;5096925;28;19928;-62
2023/10/26 08:45:38;;;;;;;;;;;11.60;87.30;;;;;;5093613;28;20022;-67
2023/10/26 08:48:19;;;;;;;;;;;11.70;87.30;;;;;;5100493;28;20228;-67
2023/10/26 08:51:00;;;;;;;;;;;11.70;87.20;;;;;;5093031;28;19924;-66
2023/10/26 08:53:34;;;;;;;;;;;11.80;87.20;;;;;;5099981;28;20367;-67
2023/10/26 08:56:01;;;;;;;;;;;11.90;87.00;;;;;;5097152;28;19934;-67
2023/10/26 08:58:34;;;;;;;;;;;11.90;86.90;;;;;;5098615;28;19979;-66
2023/10/26 09:01:07;;;;;;;;;;;11.90;86.70;;;;;;5099543;27;19932;-66
2023/10/26 09:03:41;;;;;;;;;;;11.90;86.60;;;;;;5100043;28;19924;-67
2023/10/26 09:06:15;;;;;;;;;;;12.00;86.70;;;;;;5098280;28;19935;-66
2023/10/26 09:08:59;;;;;;;;;;;12.10;86.60;;;;;;5098566;28;19944;-66
2023/10/26 09:11:33;;;;;;;;;;;12.20;86.30;;;;;;5101505;28;19939;-66
2023/10/26 09:14:12;;;;;;;;;;;12.20;86.20;;;;;;5097775;28;20042;-66
2023/10/26 09:16:46;;;;;;;;;;;12.30;86.10;;;;;;5100336;28;19935;-66
2023/10/26 09:19:21;;;;;;;;;;;12.40;85.80;;;;;;5097125;28;19955;-65
2023/10/26 09:21:56;;;;;;;;;;;12.30;85.60;;;;;;5095971;28;19974;-66
2023/10/26 09:24:30;;;;;;;;;;;12.30;85.50;;;;;;5095571;28;19923;-67
2023/10/26 09:27:03;;;;;;;;;;;12.40;85.40;;;;;;5099918;28;19931;-62
2023/10/26 09:29:37;;;;;;;;;;;12.40;85.10;;;;;;5098220;28;19973;-61
2023/10/26 09:32:12;;;;;;;;;;;12.40;84.60;;;;;;5099962;28;19924;-62
2023/10/26 09:34:46;;;;;;;;;;;12.50;84.90;;;;;;5094990;28;19924;-61
2023/10/26 09:37:20;;;;;;;;;;;12.50;84.60;;;;;;5098405;28;20378;-60
2023/10/26 09:39:53;;;;;;;;;;;12.50;84.70;;;;;;5095182;28;19924;-61
2023/10/26 09:42:26;;;;;;;;;;;12.60;84.50;;;;;;5099543;28;19924;-61
2023/10/26 09:44:59;;;;;;;;;;;12.60;84.00;;;;;;5097124;28;20004;-61
2023/10/26 09:47:32;;;;;;;;;;;12.60;84.00;;;;;;5092127;28;19944;-61
2023/10/26 09:50:07;;;;;;;;;;;12.60;84.00;;;;;;5095719;27;20020;-61
2023/10/26 09:52:41;;;;;;;;;;;12.50;83.90;;;;;;5099689;28;19928;-61
2023/10/26 09:55:10;;;;;;;;;;;12.40;84.10;;;;;;5099430;28;19924;-61
2023/10/26 09:57:46;;;;;;;;;;;12.50;83.90;;;;;;5097388;28;19924;-64
2023/10/26 10:00:19;;;;;;;;;;;12.50;84.00;;;;;;5091833;28;20405;-67
2023/10/26 10:03:08;;;;;;;;;;;12.50;84.00;;;;;;5092498;28;20355;-65
2023/10/26 10:05:43;;;;;;;;;;;12.40;83.90;;;;;;5098697;28;20015;-65
2023/10/26 10:08:38;;;;;;;;;;;12.50;83.70;;;;;;5096155;28;19927;-65
2023/10/26 10:11:21;;;;;;;;;;;12.40;83.90;;;;;;5097880;28;19924;-64
2023/10/26 10:13:55;;;;;;;;;;;12.50;83.70;;;;;;5099044;28;19973;-66
2023/10/26 10:16:47;;;;;;;;;;;12.60;83.50;;;;;;5093967;28;19932;-66
2023/10/26 10:19:20;;;;;;;;;;;12.70;83.40;;;;;;5098946;28;19924;-67
2023/10/26 10:21:55;;;;;;;;;;;12.90;83.10;;;;;;5098499;28;19923;-66
2023/10/26 10:24:48;;;;;;;;;;;12.90;83.00;;;;;;5095590;28;20349;-65
2023/10/26 10:27:21;;;;;;;;;;;13.00;83.10;;;;;;5099146;28;19924;-66
2023/10/26 10:29:56;;;;;;;;;;;13.10;83.00;;;;;;5096086;28;19928;-66
2023/10/26 10:32:48;;;;;;;;;;;13.10;82.80;;;;;;5094948;28;19931;-66
2023/10/26 10:35:33;;;;;;;;;;;13.20;82.50;;;;;;5099715;28;19923;-66
2023/10/26 10:38:20;;;;;;;;;;;13.20;82.10;;;;;;5102478;28;19924;-65
2023/10/26 10:41:07;;;;;;;;;;;13.20;82.00;;;;;;5102780;28;19924;-66
2023/10/26 10:43:43;;;;;;;;;;;13.20;82.00;;;;;;5114716;27;19935;-67
2023/10/26 10:46:18;;;;;;;;;;;13.30;82.10;;;;;;5086806;28;20339;-68
2023/10/26 10:48:59;;;;;;;;;;;13.30;81.80;;;;;;5100035;27;19931;-66
2023/10/26 10:51:33;;;;;;;;;;;13.30;81.60;;;;;;5102319;27;19971;-66
2023/10/26 10:54:08;;;;;;;;;;;13.40;81.40;;;;;;5100232;28;20023;-68
2023/10/26 10:56:42;;;;;;;;;;;13.40;81.30;;;;;;5093153;28;19932;-68
2023/10/26 10:59:16;;;;;;;;;;;13.40;81.10;;;;;;5100253;28;19924;-68
2023/10/26 11:01:49;;;;;;;;;;;13.40;81.10;;;;;;5099166;27;20097;-66
2023/10/26 11:04:23;;;;;;;;;;;13.40;80.70;;;;;;5099426;28;19967;-66
2023/10/26 11:06:56;;;;;;;;;;;13.40;80.30;;;;;;5102400;28;20260;-63
2023/10/26 11:09:37;;;;;;;;;;;13.50;80.20;;;;;;5098691;27;19932;-63
2023/10/26 11:12:11;;;;;;;;;;;13.60;79.70;;;;;;5101859;28;19935;-63
2023/10/26 11:14:49;;;;;;;;;;;13.60;79.70;;;;;;5101832;27;19978;-62
2023/10/26 11:17:23;;;;;;;;;;;13.60;79.10;;;;;;5102098;28;19932;-62
2023/10/26 11:19:56;;;;;;;;;;;13.60;78.70;;;;;;5101740;28;20401;-61
2023/10/26 11:22:30;;;;;;;;;;;13.60;78.80;;;;;;5097990;28;20319;-61
2023/10/26 11:25:11;;;;;;;;;;;13.60;79.30;;;;;;5102948;28;20616;-62
2023/10/26 11:27:45;;;;;;;;;;;13.60;79.00;;;;;;5101388;28;19932;-61
2023/10/26 11:30:18;;;;;;;;;;;13.70;79.00;;;;;;5098606;28;19954;-61
2023/10/26 11:32:51;;;;;;;;;;;13.70;79.20;;;;;;5101242;28;19924;-62
2023/10/26 11:35:26;;;;;;;;;;;13.70;79.30;;;;;;5099666;27;20336;-62
2023/10/26 11:38:03;;;;;;;;;;;13.80;78.90;;;;;;5097221;28;19959;-61
2023/10/26 11:40:39;;;;;;;;;;;13.90;78.70;;;;;;5100704;28;19961;-62
2023/10/26 11:43:12;;;;;;;;;;;13.90;78.80;;;;;;5098406;28;20379;-63
2023/10/26 11:45:49;;;;;;;;;;;13.90;78.70;;;;;;5098563;28;20421;-61
2023/10/26 11:48:25;;;;;;;;;;;13.90;78.60;;;;;;5099034;28;19985;-62
2023/10/26 11:50:59;;;;;;;;;;;13.80;78.60;;;;;;5099534;28;19932;-61
2023/10/26 11:53:32;;;;;;;;;;;13.80;78.10;;;;;;5099447;28;19981;-62
2023/10/26 11:56:06;;;;;;;;;;;13.90;78.20;;;;;;5099083;28;19928;-62
2023/10/26 11:58:40;;;;;;;;;;;13.90;78.10;;;;;;5097263;27;20584;-62
2023/10/26 12:01:13;;;;;;;;;;;13.80;77.60;;;;;;5101036;28;20010;-63
2023/10/26 12:03:47;;;;;;;;;;;13.90;77.90;;;;;;5099433;28;19936;-62
2023/10/26 12:06:20;;;;;;;;;;;13.90;77.10;;;;;;5100126;28;20010;-63
2023/10/26 12:08:53;;;;;;;;;;;13.90;77.50;;;;;;5096874;27;20027;-61
2023/10/26 12:11:28;;;;;;;;;;;13.90;77.50;;;;;;5099632;28;19959;-63
2023/10/26 12:14:02;;;;;;;;;;;13.90;77.50;;;;;;5098846;28;19934;-62
2023/10/26 12:16:35;;;;;;;;;;;13.80;77.10;;;;;;5100767;28;19935;-62
2023/10/26 12:19:10;;;;;;;;;;;13.90;77.00;;;;;;5100391;28;19973;-61
2023/10/26 12:21:43;;;;;;;;;;;13.90;76.90;;;;;;5098484;27;19924;-61
2023/10/26 12:24:15;;;;;;;;;;;13.90;76.70;;;;;;5097777;28;19978;-62
2023/10/26 12:26:55;;;;;;;;;;;13.90;76.90;;;;;;5099363;28;19928;-62
2023/10/26 12:29:29;;;;;;;;;;;13.90;76.90;;;;;;5098533;28;19928;-62
2023/10/26 12:32:02;;;;;;;;;;;13.90;77.00;;;;;;5100844;28;19950;-63
2023/10/26 12:34:29;;;;;;;;;;;13.90;77.60;;;;;;5098630;28;20017;-62
2023/10/26 12:37:02;;;;;;;;;;;13.80;77.20;;;;;;5100433;28;20654;-62
2023/10/26 12:39:35;;;;;;;;;;;13.80;77.40;;;;;;5098247;28;19927;-62
2023/10/26 12:42:09;;;;;;;;;;;13.80;77.30;;;;;;5101571;28;19977;-61
2023/10/26 12:44:43;;;;;;;;;;;13.80;77.70;;;;;;5095286;27;19939;-62
2023/10/26 12:47:16;;;;;;;;;;;13.80;77.40;;;;;;5097003;28;19931;-62
2023/10/26 12:49:49;;;;;;;;;;;13.80;77.50;;;;;;5096893;28;19931;-62
2023/10/26 12:52:22;;;;;;;;;;;13.80;77.60;;;;;;5099622;28;20438;-62
2023/10/26 12:54:49;;;;;;;;;;;13.80;77.70;;;;;;5100068;28;19932;-62
2023/10/26 12:57:23;;;;;;;;;;;13.80;77.80;;;;;;5100132;28;19971;-62
2023/10/26 12:59:57;;;;;;;;;;;13.80;77.90;;;;;;5097901;27;19924;-62
2023/10/26 13:02:30;;;;;;;;;;;13.80;78.10;;;;;;5097666;28;19924;-61
2023/10/26 13:05:03;;;;;;;;;;;13.80;78.10;;;;;;5096071;28;19930;-62
2023/10/26 13:07:36;;;;;;;;;;;13.80;78.10;;;;;;5096501;28;20371;-61
2023/10/26 13:10:03;;;;;;;;;;;13.80;78.10;;;;;;5090156;28;20006;-61
2023/10/26 13:12:39;;;;;;;;;;;13.80;78.10;;;;;;5100548;28;19924;-63
2023/10/26 13:15:14;;;;;;;;;;;13.90;78.70;;;;;;5099659;28;20371;-61
2023/10/26 13:17:47;;;;;;;;;;;13.80;78.20;;;;;;5099684;27;19971;-62
2023/10/26 13:20:20;;;;;;;;;;;13.80;78.30;;;;;;5099708;28;19928;-62
2023/10/26 13:22:47;;;;;;;;;;;13.90;78.30;;;;;;5098444;27;19938;-62
2023/10/26 13:25:22;;;;;;;;;;;13.90;78.40;;;;;;5085768;28;19973;-67
2023/10/26 13:27:59;;;;;;;;;;;14.00;78.20;;;;;;5096095;28;20371;-69
2023/10/26 13:30:33;;;;;;;;;;;14.10;78.40;;;;;;5101210;28;20268;-71
2023/10/26 13:33:06;;;;;;;;;;;14.10;78.20;;;;;;5101196;28;19928;-70
2023/10/26 13:35:39;;;;;;;;;;;14.00;78.30;;;;;;5116315;27;19931;-70
2023/10/26 13:38:13;;;;;;;;;;;14.00;78.30;;;;;;5100271;28;19928;-69
2023/10/26 13:40:46;;;;;;;;;;;14.00;78.40;;;;;;5096436;28;19928;-71
2023/10/26 13:43:20;;;;;;;;;;;14.00;78.60;;;;;;5095425;28;19924;-69
2023/10/26 13:45:54;;;;;;;;;;;14.00;78.60;;;;;;5097388;28;19938;-70
2023/10/26 13:48:27;;;;;;;;;;;14.00;78.70;;;;;;5090926;28;20291;-69
2023/10/26 13:51:00;;;;;;;;;;;13.90;79.00;;;;;;5098308;28;19928;-70
2023/10/26 13:53:33;;;;;;;;;;;13.80;78.80;;;;;;5090023;28;19973;-69
2023/10/26 13:56:06;;;;;;;;;;;13.90;78.90;;;;;;5100276;28;20019;-70
2023/10/26 13:58:41;;;;;;;;;;;13.80;79.10;;;;;;5099940;28;20004;-70
2023/10/26 14:01:14;;;;;;;;;;;13.80;79.40;;;;;;5100370;28;19934;-69
2023/10/26 14:03:47;;;;;;;;;;;13.80;79.40;;;;;;5095547;28;19932;-69
2023/10/26 14:06:23;;;;;;;;;;;13.80;79.60;;;;;;5100889;28;19927;-69
2023/10/26 14:08:58;;;;;;;;;;;13.80;80.00;;;;;;5097993;28;20051;-70
2023/10/26 14:11:31;;;;;;;;;;;13.80;79.70;;;;;;5099054;28;20259;-69
2023/10/26 14:14:06;;;;;;;;;;;13.80;79.90;;;;;;5098148;28;20389;-70
2023/10/26 14:16:39;;;;;;;;;;;13.90;79.90;;;;;;5098988;28;19928;-70
2023/10/26 14:19:12;;;;;;;;;;;13.80;80.10;;;;;;5094787;28;19939;-70
2023/10/26 14:21:45;;;;;;;;;;;13.80;79.90;;;;;;5098906;28;20004;-70
2023/10/26 14:24:18;;;;;;;;;;;13.90;79.90;;;;;;5102285;27;20277;-71
2023/10/26 14:26:45;;;;;;;;;;;13.90;80.10;;;;;;5090257;28;19932;-70
2023/10/26 14:29:19;;;;;;;;;;;13.90;80.30;;;;;;5094434;28;19959;-69
2023/10/26 14:31:52;;;;;;;;;;;13.90;80.50;;;;;;5096302;28;19928;-70
2023/10/26 14:34:26;;;;;;;;;;;13.80;80.30;;;;;;5095372;28;20402;-70
2023/10/26 14:37:00;;;;;;;;;;;13.80;80.40;;;;;;5095353;28;19932;-70
2023/10/26 14:39:34;;;;;;;;;;;13.80;80.10;;;;;;5100192;28;19927;-70
2023/10/26 14:42:07;;;;;;;;;;;13.80;80.30;;;;;;5098527;28;19942;-71
2023/10/26 14:44:42;;;;;;;;;;;13.80;80.40;;;;;;5094333;28;20371;-70
2023/10/26 14:47:15;;;;;;;;;;;13.80;80.50;;;;;;5098906;28;19939;-69
2023/10/26 14:49:48;;;;;;;;;;;13.80;80.40;;;;;;5097235;28;19936;-70
2023/10/26 14:52:21;;;;;;;;;;;13.70;80.00;;;;;;5096788;28;19928;-70
2023/10/26 14:54:54;;;;;;;;;;;13.70;80.00;;;;;;5097958;28;19970;-70
2023/10/26 14:57:21;;;;;;;;;;;13.70;80.30;;;;;;5098344;28;19977;-70
2023/10/26 14:59:56;;;;;;;;;;;13.70;80.40;;;;;;5097496;28;19957;-70
2023/10/26 15:02:22;;;;;;;;;;;13.70;80.50;;;;;;5099617;28;19985;-70
2023/10/26 15:04:55;;;;;;;;;;;13.70;80.50;;;;;;5098803;28;20070;-70
2023/10/26 15:07:22;;;;;;;;;;;13.60;80.30;;;;;;5100814;28;19931;-70
2023/10/26 15:09:55;;;;;;;;;;;13.60;80.50;;;;;;5098392;28;19932;-69